sensor_id;sensor_type;location;lat;lon;timestamp;P1;durP1;ratioP1;P2;durP2;ratioP2
38224;SDS011;24025;48.138;11.428;2023-04-24T00:01:28;0.50;;;0.35;;
38224;SDS011;24025;48.138;11.428;2023-04-24T00:04:02;0.65;;;0.30;;
38224;SDS011;24025;48.138;11.428;2023-04-24T00:06:36;0.57;;;0.20;;
38224;SDS011;24025;48.138;11.428;2023-04-24T00:09:22;1.10;;;0.30;;
38224;SDS011;24025;48.138;11.428;2023-04-24T00:11:55;1.15;;;1.05;;
38224;SDS011;24025;48.138;11.428;2023-04-24T00:14:27;0.70;;;0.22;;
38224;SDS011;24025;48.138;11.428;2023-04-24T00:16:58;0.95;;;0.43;;
38224;SDS011;24025;48.138;11.428;2023-04-24T00:19:30;3.17;;;0.25;;
38224;SDS011;24025;48.138;11.428;2023-04-24T00:22:02;1.02;;;0.30;;
38224;SDS011;24025;48.138;11.428;2023-04-24T00:24:34;1.75;;;0.30;;
38224;SDS011;24025;48.138;11.428;2023-04-24T00:27:06;0.68;;;0.28;;
38224;SDS011;24025;48.138;11.428;2023-04-24T00:29:37;1.25;;;0.10;;
38224;SDS011;24025;48.138;11.428;2023-04-24T00:32:09;3.25;;;0.43;;
38224;SDS011;24025;48.138;11.428;2023-04-24T00:34:42;0.85;;;0.30;;
38224;SDS011;24025;48.138;11.428;2023-04-24T00:37:13;0.82;;;0.20;;
38224;SDS011;24025;48.138;11.428;2023-04-24T00:39:45;0.90;;;0.40;;
38224;SDS011;24025;48.138;11.428;2023-04-24T00:42:17;0.47;;;0.20;;
38224;SDS011;24025;48.138;11.428;2023-04-24T00:44:51;1.30;;;0.30;;
38224;SDS011;24025;48.138;11.428;2023-04-24T00:47:25;1.25;;;0.25;;
38224;SDS011;24025;48.138;11.428;2023-04-24T00:49:57;0.82;;;0.20;;
38224;SDS011;24025;48.138;11.428;2023-04-24T00:52:29;0.52;;;0.30;;
38224;SDS011;24025;48.138;11.428;2023-04-24T00:55:02;6.53;;;0.50;;
38224;SDS011;24025;48.138;11.428;2023-04-24T00:57:34;2.58;;;0.47;;
38224;SDS011;24025;48.138;11.428;2023-04-24T01:02:41;0.95;;;0.10;;
38224;SDS011;24025;48.138;11.428;2023-04-24T01:05:16;0.73;;;0.10;;
38224;SDS011;24025;48.138;11.428;2023-04-24T01:07:48;0.88;;;0.30;;
38224;SDS011;24025;48.138;11.428;2023-04-24T01:10:20;0.50;;;0.10;;
38224;SDS011;24025;48.138;11.428;2023-04-24T01:12:51;1.23;;;0.13;;
38224;SDS011;24025;48.138;11.428;2023-04-24T01:17:55;0.85;;;0.20;;
38224;SDS011;24025;48.138;11.428;2023-04-24T01:20:27;0.60;;;0.20;;
38224;SDS011;24025;48.138;11.428;2023-04-24T01:23:01;0.28;;;0.10;;
38224;SDS011;24025;48.138;11.428;2023-04-24T01:25:33;1.15;;;0.10;;
38224;SDS011;24025;48.138;11.428;2023-04-24T01:30:36;0.20;;;0.10;;
38224;SDS011;24025;48.138;11.428;2023-04-24T01:33:08;1.45;;;0.10;;
38224;SDS011;24025;48.138;11.428;2023-04-24T01:35:40;0.52;;;0.10;;
38224;SDS011;24025;48.138;11.428;2023-04-24T01:38:11;0.82;;;0.20;;
38224;SDS011;24025;48.138;11.428;2023-04-24T01:40:43;1.13;;;0.30;;
38224;SDS011;24025;48.138;11.428;2023-04-24T01:43:14;0.73;;;0.13;;
38224;SDS011;24025;48.138;11.428;2023-04-24T01:45:46;0.22;;;0.20;;
38224;SDS011;24025;48.138;11.428;2023-04-24T01:48:18;0.65;;;0.10;;
38224;SDS011;24025;48.138;11.428;2023-04-24T01:50:49;0.45;;;0.28;;
38224;SDS011;24025;48.138;11.428;2023-04-24T01:53:21;1.85;;;0.20;;
38224;SDS011;24025;48.138;11.428;2023-04-24T01:55:52;1.75;;;0.10;;
38224;SDS011;24025;48.138;11.428;2023-04-24T01:58:24;0.63;;;0.20;;
38224;SDS011;24025;48.138;11.428;2023-04-24T02:00:57;0.17;;;0.10;;
38224;SDS011;24025;48.138;11.428;2023-04-24T02:03:30;1.17;;;0.10;;
38224;SDS011;24025;48.138;11.428;2023-04-24T02:06:02;0.50;;;0.13;;
38224;SDS011;24025;48.138;11.428;2023-04-24T02:08:33;2.28;;;0.10;;
38224;SDS011;24025;48.138;11.428;2023-04-24T02:11:05;0.90;;;0.32;;
38224;SDS011;24025;48.138;11.428;2023-04-24T02:13:37;0.08;;;0.00;;
38224;SDS011;24025;48.138;11.428;2023-04-24T02:16:08;3.20;;;0.30;;
38224;SDS011;24025;48.138;11.428;2023-04-24T02:18:40;0.20;;;0.10;;
38224;SDS011;24025;48.138;11.428;2023-04-24T02:21:12;0.52;;;0.10;;
38224;SDS011;24025;48.138;11.428;2023-04-24T02:23:43;0.32;;;0.15;;
38224;SDS011;24025;48.138;11.428;2023-04-24T02:26:15;1.73;;;0.20;;
38224;SDS011;24025;48.138;11.428;2023-04-24T02:28:46;0.98;;;0.17;;
38224;SDS011;24025;48.138;11.428;2023-04-24T02:31:18;0.10;;;0.00;;
38224;SDS011;24025;48.138;11.428;2023-04-24T02:33:49;1.35;;;0.15;;
38224;SDS011;24025;48.138;11.428;2023-04-24T02:36:21;0.10;;;0.07;;
38224;SDS011;24025;48.138;11.428;2023-04-24T02:38:53;0.10;;;0.10;;
38224;SDS011;24025;48.138;11.428;2023-04-24T02:41:24;1.75;;;0.32;;
38224;SDS011;24025;48.138;11.428;2023-04-24T02:43:59;1.63;;;0.10;;
38224;SDS011;24025;48.138;11.428;2023-04-24T02:46:30;0.32;;;0.20;;
38224;SDS011;24025;48.138;11.428;2023-04-24T02:49:02;0.38;;;0.10;;
38224;SDS011;24025;48.138;11.428;2023-04-24T02:51:33;0.33;;;0.10;;
38224;SDS011;24025;48.138;11.428;2023-04-24T02:54:05;1.63;;;0.20;;
38224;SDS011;24025;48.138;11.428;2023-04-24T02:56:36;0.50;;;0.17;;
38224;SDS011;24025;48.138;11.428;2023-04-24T02:59:08;1.60;;;0.20;;
38224;SDS011;24025;48.138;11.428;2023-04-24T03:01:40;0.17;;;0.10;;
38224;SDS011;24025;48.138;11.428;2023-04-24T03:04:12;0.95;;;0.22;;
38224;SDS011;24025;48.138;11.428;2023-04-24T03:06:43;0.45;;;0.10;;
38224;SDS011;24025;48.138;11.428;2023-04-24T03:09:15;0.10;;;0.10;;
38224;SDS011;24025;48.138;11.428;2023-04-24T03:11:46;0.10;;;0.10;;
38224;SDS011;24025;48.138;11.428;2023-04-24T03:14:18;0.47;;;0.13;;
38224;SDS011;24025;48.138;11.428;2023-04-24T03:16:49;0.82;;;0.20;;
38224;SDS011;24025;48.138;11.428;2023-04-24T03:19:21;0.82;;;0.20;;
38224;SDS011;24025;48.138;11.428;2023-04-24T03:21:53;0.55;;;0.13;;
38224;SDS011;24025;48.138;11.428;2023-04-24T03:24:24;0.10;;;0.03;;
38224;SDS011;24025;48.138;11.428;2023-04-24T03:26:59;0.40;;;0.17;;
38224;SDS011;24025;48.138;11.428;2023-04-24T03:32:02;0.30;;;0.10;;
38224;SDS011;24025;48.138;11.428;2023-04-24T03:34:34;0.52;;;0.35;;
38224;SDS011;24025;48.138;11.428;2023-04-24T03:37:06;1.40;;;0.17;;
38224;SDS011;24025;48.138;11.428;2023-04-24T03:39:37;0.40;;;0.10;;
38224;SDS011;24025;48.138;11.428;2023-04-24T03:42:09;0.73;;;0.10;;
38224;SDS011;24025;48.138;11.428;2023-04-24T03:44:40;1.65;;;0.15;;
38224;SDS011;24025;48.138;11.428;2023-04-24T03:47:12;1.05;;;0.20;;
38224;SDS011;24025;48.138;11.428;2023-04-24T03:49:43;1.98;;;0.20;;
38224;SDS011;24025;48.138;11.428;2023-04-24T03:52:15;1.13;;;0.30;;
38224;SDS011;24025;48.138;11.428;2023-04-24T03:54:46;0.45;;;0.20;;
38224;SDS011;24025;48.138;11.428;2023-04-24T03:57:18;0.55;;;0.10;;
38224;SDS011;24025;48.138;11.428;2023-04-24T03:59:50;3.45;;;0.30;;
38224;SDS011;24025;48.138;11.428;2023-04-24T04:02:21;0.20;;;0.10;;
38224;SDS011;24025;48.138;11.428;2023-04-24T04:04:53;0.30;;;0.10;;
38224;SDS011;24025;48.138;11.428;2023-04-24T04:07:25;0.52;;;0.10;;
38224;SDS011;24025;48.138;11.428;2023-04-24T04:09:56;0.43;;;0.10;;
38224;SDS011;24025;48.138;11.428;2023-04-24T04:12:28;0.28;;;0.10;;
38224;SDS011;24025;48.138;11.428;2023-04-24T04:15:00;0.65;;;0.10;;
38224;SDS011;24025;48.138;11.428;2023-04-24T04:17:31;1.30;;;0.28;;
38224;SDS011;24025;48.138;11.428;2023-04-24T04:20:03;0.57;;;0.17;;
38224;SDS011;24025;48.138;11.428;2023-04-24T04:22:40;0.40;;;0.13;;
38224;SDS011;24025;48.138;11.428;2023-04-24T04:25:14;0.30;;;0.05;;
38224;SDS011;24025;48.138;11.428;2023-04-24T04:27:46;3.47;;;0.30;;
38224;SDS011;24025;48.138;11.428;2023-04-24T04:30:19;0.52;;;0.10;;
38224;SDS011;24025;48.138;11.428;2023-04-24T04:32:52;1.77;;;0.20;;
38224;SDS011;24025;48.138;11.428;2023-04-24T04:35:23;0.55;;;0.10;;
38224;SDS011;24025;48.138;11.428;2023-04-24T04:37:56;0.80;;;0.30;;
38224;SDS011;24025;48.138;11.428;2023-04-24T04:40:30;0.65;;;0.20;;
38224;SDS011;24025;48.138;11.428;2023-04-24T04:43:01;3.45;;;1.15;;
38224;SDS011;24025;48.138;11.428;2023-04-24T04:45:33;0.20;;;0.10;;
38224;SDS011;24025;48.138;11.428;2023-04-24T04:48:05;0.17;;;0.13;;
38224;SDS011;24025;48.138;11.428;2023-04-24T04:50:40;0.17;;;0.08;;
38224;SDS011;24025;48.138;11.428;2023-04-24T04:53:11;0.30;;;0.20;;
38224;SDS011;24025;48.138;11.428;2023-04-24T04:55:42;0.33;;;0.10;;
38224;SDS011;24025;48.138;11.428;2023-04-24T04:58:14;0.98;;;0.17;;
38224;SDS011;24025;48.138;11.428;2023-04-24T05:00:46;2.95;;;0.10;;
38224;SDS011;24025;48.138;11.428;2023-04-24T05:03:17;0.60;;;0.28;;
38224;SDS011;24025;48.138;11.428;2023-04-24T05:05:52;0.10;;;0.00;;
38224;SDS011;24025;48.138;11.428;2023-04-24T05:08:23;0.10;;;0.10;;
38224;SDS011;24025;48.138;11.428;2023-04-24T05:10:58;1.63;;;0.10;;
38224;SDS011;24025;48.138;11.428;2023-04-24T05:13:29;0.70;;;0.10;;
38224;SDS011;24025;48.138;11.428;2023-04-24T05:16:10;1.77;;;0.22;;
38224;SDS011;24025;48.138;11.428;2023-04-24T05:18:42;1.63;;;0.15;;
38224;SDS011;24025;48.138;11.428;2023-04-24T05:21:15;0.22;;;0.10;;
38224;SDS011;24025;48.138;11.428;2023-04-24T05:23:47;1.20;;;0.10;;
38224;SDS011;24025;48.138;11.428;2023-04-24T05:26:18;0.52;;;0.17;;
38224;SDS011;24025;48.138;11.428;2023-04-24T05:28:50;2.15;;;0.10;;
38224;SDS011;24025;48.138;11.428;2023-04-24T05:31:22;0.10;;;0.10;;
38224;SDS011;24025;48.138;11.428;2023-04-24T05:33:54;0.32;;;0.10;;
38224;SDS011;24025;48.138;11.428;2023-04-24T05:36:25;1.10;;;0.20;;
38224;SDS011;24025;48.138;11.428;2023-04-24T05:38:58;0.63;;;0.00;;
38224;SDS011;24025;48.138;11.428;2023-04-24T05:41:29;1.35;;;0.10;;
38224;SDS011;24025;48.138;11.428;2023-04-24T05:44:01;0.28;;;0.20;;
38224;SDS011;24025;48.138;11.428;2023-04-24T05:46:32;0.30;;;0.10;;
38224;SDS011;24025;48.138;11.428;2023-04-24T05:49:04;0.22;;;0.10;;
38224;SDS011;24025;48.138;11.428;2023-04-24T05:51:36;0.10;;;0.03;;
38224;SDS011;24025;48.138;11.428;2023-04-24T05:54:07;0.05;;;0.05;;
38224;SDS011;24025;48.138;11.428;2023-04-24T05:56:39;0.55;;;0.10;;
38224;SDS011;24025;48.138;11.428;2023-04-24T05:59:13;0.40;;;0.10;;
38224;SDS011;24025;48.138;11.428;2023-04-24T06:01:45;2.22;;;0.10;;
38224;SDS011;24025;48.138;11.428;2023-04-24T06:04:16;0.43;;;0.10;;
38224;SDS011;24025;48.138;11.428;2023-04-24T06:06:48;0.32;;;0.13;;
38224;SDS011;24025;48.138;11.428;2023-04-24T06:09:22;0.00;;;0.00;;
38224;SDS011;24025;48.138;11.428;2023-04-24T06:11:53;0.32;;;0.13;;
38224;SDS011;24025;48.138;11.428;2023-04-24T06:14:25;1.02;;;0.00;;
38224;SDS011;24025;48.138;11.428;2023-04-24T06:16:57;0.53;;;0.13;;
38224;SDS011;24025;48.138;11.428;2023-04-24T06:19:28;1.10;;;0.10;;
38224;SDS011;24025;48.138;11.428;2023-04-24T06:22:00;0.65;;;0.10;;
38224;SDS011;24025;48.138;11.428;2023-04-24T06:24:31;0.73;;;0.10;;
38224;SDS011;24025;48.138;11.428;2023-04-24T06:27:03;0.10;;;0.00;;
38224;SDS011;24025;48.138;11.428;2023-04-24T06:29:35;0.20;;;0.10;;
38224;SDS011;24025;48.138;11.428;2023-04-24T06:32:07;2.25;;;0.20;;
38224;SDS011;24025;48.138;11.428;2023-04-24T06:34:39;0.10;;;0.00;;
38224;SDS011;24025;48.138;11.428;2023-04-24T06:37:11;0.45;;;0.10;;
38224;SDS011;24025;48.138;11.428;2023-04-24T06:39:42;0.20;;;0.17;;
38224;SDS011;24025;48.138;11.428;2023-04-24T06:42:14;1.08;;;0.10;;
38224;SDS011;24025;48.138;11.428;2023-04-24T06:44:46;0.60;;;0.03;;
38224;SDS011;24025;48.138;11.428;2023-04-24T06:47:19;0.65;;;0.00;;
38224;SDS011;24025;48.138;11.428;2023-04-24T06:49:51;0.03;;;0.00;;
38224;SDS011;24025;48.138;11.428;2023-04-24T06:54:59;2.35;;;0.20;;
38224;SDS011;24025;48.138;11.428;2023-04-24T06:57:34;0.17;;;0.10;;
38224;SDS011;24025;48.138;11.428;2023-04-24T07:00:06;0.03;;;0.00;;
38224;SDS011;24025;48.138;11.428;2023-04-24T07:02:38;0.10;;;0.10;;
38224;SDS011;24025;48.138;11.428;2023-04-24T07:05:10;3.80;;;0.30;;
38224;SDS011;24025;48.138;11.428;2023-04-24T07:07:42;1.17;;;0.10;;
38224;SDS011;24025;48.138;11.428;2023-04-24T07:10:14;0.10;;;0.00;;
38224;SDS011;24025;48.138;11.428;2023-04-24T07:12:45;0.73;;;0.10;;
38224;SDS011;24025;48.138;11.428;2023-04-24T07:17:49;0.90;;;0.08;;
38224;SDS011;24025;48.138;11.428;2023-04-24T07:20:21;0.00;;;0.00;;
38224;SDS011;24025;48.138;11.428;2023-04-24T07:22:52;0.25;;;0.00;;
38224;SDS011;24025;48.138;11.428;2023-04-24T07:25:25;0.50;;;0.10;;
38224;SDS011;24025;48.138;11.428;2023-04-24T07:27:56;0.85;;;0.10;;
38224;SDS011;24025;48.138;11.428;2023-04-24T07:30:28;0.55;;;0.10;;
38224;SDS011;24025;48.138;11.428;2023-04-24T07:33:00;0.35;;;0.10;;
38224;SDS011;24025;48.138;11.428;2023-04-24T07:35:32;0.25;;;0.00;;
38224;SDS011;24025;48.138;11.428;2023-04-24T07:40:36;0.40;;;0.20;;
38224;SDS011;24025;48.138;11.428;2023-04-24T07:43:07;0.22;;;0.00;;
38224;SDS011;24025;48.138;11.428;2023-04-24T07:45:39;0.55;;;0.30;;
38224;SDS011;24025;48.138;11.428;2023-04-24T07:48:11;1.17;;;0.05;;
38224;SDS011;24025;48.138;11.428;2023-04-24T07:50:45;1.48;;;0.20;;
38224;SDS011;24025;48.138;11.428;2023-04-24T07:53:17;1.17;;;0.03;;
38224;SDS011;24025;48.138;11.428;2023-04-24T07:55:49;1.05;;;0.10;;
38224;SDS011;24025;48.138;11.428;2023-04-24T07:58:20;0.10;;;0.10;;
38224;SDS011;24025;48.138;11.428;2023-04-24T08:00:52;0.30;;;0.20;;
38224;SDS011;24025;48.138;11.428;2023-04-24T08:03:24;0.47;;;0.08;;
38224;SDS011;24025;48.138;11.428;2023-04-24T08:05:56;0.75;;;0.20;;
38224;SDS011;24025;48.138;11.428;2023-04-24T08:08:28;0.10;;;0.10;;
38224;SDS011;24025;48.138;11.428;2023-04-24T08:10:59;0.30;;;0.10;;
38224;SDS011;24025;48.138;11.428;2023-04-24T08:13:30;0.10;;;0.00;;
38224;SDS011;24025;48.138;11.428;2023-04-24T08:16:02;0.65;;;0.30;;
38224;SDS011;24025;48.138;11.428;2023-04-24T08:18:34;0.20;;;0.10;;
38224;SDS011;24025;48.138;11.428;2023-04-24T08:21:07;0.95;;;0.10;;
38224;SDS011;24025;48.138;11.428;2023-04-24T08:23:38;0.40;;;0.30;;
38224;SDS011;24025;48.138;11.428;2023-04-24T08:26:10;0.85;;;0.10;;
38224;SDS011;24025;48.138;11.428;2023-04-24T08:28:42;0.40;;;0.10;;
38224;SDS011;24025;48.138;11.428;2023-04-24T08:31:14;0.98;;;0.20;;
38224;SDS011;24025;48.138;11.428;2023-04-24T08:33:45;2.70;;;0.30;;
38224;SDS011;24025;48.138;11.428;2023-04-24T08:36:18;0.32;;;0.20;;
38224;SDS011;24025;48.138;11.428;2023-04-24T08:38:50;0.22;;;0.20;;
38224;SDS011;24025;48.138;11.428;2023-04-24T08:41:21;4.38;;;0.30;;
38224;SDS011;24025;48.138;11.428;2023-04-24T08:43:55;5.75;;;0.38;;
38224;SDS011;24025;48.138;11.428;2023-04-24T08:46:29;1.35;;;0.50;;
38224;SDS011;24025;48.138;11.428;2023-04-24T08:49:02;1.85;;;0.43;;
38224;SDS011;24025;48.138;11.428;2023-04-24T08:51:36;0.77;;;0.40;;
38224;SDS011;24025;48.138;11.428;2023-04-24T08:54:08;0.90;;;0.30;;
38224;SDS011;24025;48.138;11.428;2023-04-24T08:56:40;3.65;;;0.30;;
38224;SDS011;24025;48.138;11.428;2023-04-24T08:59:15;1.92;;;0.50;;
38224;SDS011;24025;48.138;11.428;2023-04-24T09:01:46;1.80;;;0.75;;
38224;SDS011;24025;48.138;11.428;2023-04-24T09:04:21;0.95;;;0.30;;
38224;SDS011;24025;48.138;11.428;2023-04-24T09:06:55;1.95;;;0.22;;
38224;SDS011;24025;48.138;11.428;2023-04-24T09:09:28;0.77;;;0.30;;
38224;SDS011;24025;48.138;11.428;2023-04-24T09:12:02;2.40;;;0.77;;
38224;SDS011;24025;48.138;11.428;2023-04-24T09:14:35;2.78;;;0.20;;
38224;SDS011;24025;48.138;11.428;2023-04-24T09:17:08;2.88;;;0.30;;
38224;SDS011;24025;48.138;11.428;2023-04-24T09:19:40;0.85;;;0.30;;
38224;SDS011;24025;48.138;11.428;2023-04-24T09:22:12;1.83;;;0.40;;
38224;SDS011;24025;48.138;11.428;2023-04-24T09:24:44;3.70;;;0.57;;
38224;SDS011;24025;48.138;11.428;2023-04-24T09:27:16;1.27;;;0.30;;
38224;SDS011;24025;48.138;11.428;2023-04-24T09:29:53;1.05;;;0.35;;
38224;SDS011;24025;48.138;11.428;2023-04-24T09:32:26;0.38;;;0.38;;
38224;SDS011;24025;48.138;11.428;2023-04-24T09:35:09;0.65;;;0.20;;
38224;SDS011;24025;48.138;11.428;2023-04-24T09:37:43;0.85;;;0.28;;
38224;SDS011;24025;48.138;11.428;2023-04-24T09:40:20;2.67;;;0.35;;
38224;SDS011;24025;48.138;11.428;2023-04-24T09:42:56;3.60;;;0.50;;
38224;SDS011;24025;48.138;11.428;2023-04-24T09:45:35;2.67;;;0.30;;
38224;SDS011;24025;48.138;11.428;2023-04-24T09:48:10;2.03;;;0.55;;
38224;SDS011;24025;48.138;11.428;2023-04-24T09:50:45;1.45;;;0.38;;
38224;SDS011;24025;48.138;11.428;2023-04-24T09:53:18;4.03;;;0.50;;
38224;SDS011;24025;48.138;11.428;2023-04-24T09:55:55;1.80;;;0.60;;
38224;SDS011;24025;48.138;11.428;2023-04-24T09:58:28;1.95;;;0.50;;
38224;SDS011;24025;48.138;11.428;2023-04-24T10:01:00;2.45;;;0.43;;
38224;SDS011;24025;48.138;11.428;2023-04-24T10:03:32;3.78;;;0.57;;
38224;SDS011;24025;48.138;11.428;2023-04-24T10:06:04;0.88;;;0.32;;
38224;SDS011;24025;48.138;11.428;2023-04-24T10:08:42;1.05;;;0.50;;
38224;SDS011;24025;48.138;11.428;2023-04-24T10:13:46;1.83;;;0.40;;
38224;SDS011;24025;48.138;11.428;2023-04-24T10:16:19;0.80;;;0.50;;
38224;SDS011;24025;48.138;11.428;2023-04-24T10:18:53;0.50;;;0.30;;
38224;SDS011;24025;48.138;11.428;2023-04-24T10:21:26;0.82;;;0.40;;
38224;SDS011;24025;48.138;11.428;2023-04-24T10:26:31;1.38;;;0.40;;
38224;SDS011;24025;48.138;11.428;2023-04-24T10:29:03;0.85;;;0.40;;
38224;SDS011;24025;48.138;11.428;2023-04-24T10:31:40;2.05;;;0.50;;
38224;SDS011;24025;48.138;11.428;2023-04-24T10:36:48;0.98;;;0.50;;
38224;SDS011;24025;48.138;11.428;2023-04-24T10:39:24;1.00;;;0.30;;
38224;SDS011;24025;48.138;11.428;2023-04-24T10:41:58;1.23;;;0.77;;
38224;SDS011;24025;48.138;11.428;2023-04-24T10:44:39;2.30;;;0.38;;
38224;SDS011;24025;48.138;11.428;2023-04-24T10:47:14;0.30;;;0.10;;
38224;SDS011;24025;48.138;11.428;2023-04-24T10:49:46;0.47;;;0.30;;
38224;SDS011;24025;48.138;11.428;2023-04-24T10:52:21;0.98;;;0.15;;
38224;SDS011;24025;48.138;11.428;2023-04-24T10:55:14;0.90;;;0.20;;
38224;SDS011;24025;48.138;11.428;2023-04-24T10:58:01;0.40;;;0.20;;
38224;SDS011;24025;48.138;11.428;2023-04-24T11:00:38;2.55;;;0.10;;
38224;SDS011;24025;48.138;11.428;2023-04-24T11:03:27;0.05;;;0.05;;
38224;SDS011;24025;48.138;11.428;2023-04-24T11:06:02;0.65;;;0.20;;
38224;SDS011;24025;48.138;11.428;2023-04-24T11:11:17;0.40;;;0.20;;
38224;SDS011;24025;48.138;11.428;2023-04-24T11:19:21;0.73;;;0.38;;
38224;SDS011;24025;48.138;11.428;2023-04-24T11:21:58;0.82;;;0.30;;
38224;SDS011;24025;48.138;11.428;2023-04-24T11:27:17;0.88;;;0.50;;
38224;SDS011;24025;48.138;11.428;2023-04-24T11:32:39;0.30;;;0.20;;
38224;SDS011;24025;48.138;11.428;2023-04-24T11:35:16;1.10;;;0.65;;
38224;SDS011;24025;48.138;11.428;2023-04-24T11:37:59;1.52;;;0.52;;
38224;SDS011;24025;48.138;11.428;2023-04-24T11:40:54;0.55;;;0.40;;
38224;SDS011;24025;48.138;11.428;2023-04-24T11:45:59;2.08;;;0.40;;
38224;SDS011;24025;48.138;11.428;2023-04-24T11:48:34;0.43;;;0.30;;
38224;SDS011;24025;48.138;11.428;2023-04-24T11:51:07;0.60;;;0.35;;
38224;SDS011;24025;48.138;11.428;2023-04-24T11:53:39;0.85;;;0.38;;
38224;SDS011;24025;48.138;11.428;2023-04-24T11:56:11;1.75;;;0.50;;
38224;SDS011;24025;48.138;11.428;2023-04-24T11:58:42;0.60;;;0.40;;
38224;SDS011;24025;48.138;11.428;2023-04-24T12:01:14;0.60;;;0.30;;
38224;SDS011;24025;48.138;11.428;2023-04-24T12:03:58;0.98;;;0.47;;
38224;SDS011;24025;48.138;11.428;2023-04-24T12:06:32;1.08;;;0.52;;
38224;SDS011;24025;48.138;11.428;2023-04-24T12:09:03;0.35;;;0.35;;
38224;SDS011;24025;48.138;11.428;2023-04-24T12:11:55;0.57;;;0.30;;
38224;SDS011;24025;48.138;11.428;2023-04-24T12:14:30;2.50;;;0.50;;
38224;SDS011;24025;48.138;11.428;2023-04-24T12:17:02;0.70;;;0.30;;
38224;SDS011;24025;48.138;11.428;2023-04-24T12:19:34;1.15;;;0.60;;
38224;SDS011;24025;48.138;11.428;2023-04-24T12:22:05;0.63;;;0.35;;
38224;SDS011;24025;48.138;11.428;2023-04-24T12:24:55;0.80;;;0.38;;
38224;SDS011;24025;48.138;11.428;2023-04-24T12:27:29;1.63;;;0.50;;
38224;SDS011;24025;48.138;11.428;2023-04-24T12:30:03;0.93;;;0.40;;
38224;SDS011;24025;48.138;11.428;2023-04-24T12:32:40;1.50;;;0.30;;
38224;SDS011;24025;48.138;11.428;2023-04-24T12:35:13;0.63;;;0.30;;
38224;SDS011;24025;48.138;11.428;2023-04-24T12:37:50;1.15;;;0.35;;
38224;SDS011;24025;48.138;11.428;2023-04-24T12:40:21;0.85;;;0.35;;
38224;SDS011;24025;48.138;11.428;2023-04-24T12:42:56;2.58;;;1.10;;
38224;SDS011;24025;48.138;11.428;2023-04-24T12:45:28;0.80;;;0.50;;
38224;SDS011;24025;48.138;11.428;2023-04-24T12:48:00;1.00;;;0.40;;
38224;SDS011;24025;48.138;11.428;2023-04-24T12:50:31;0.90;;;0.43;;
38224;SDS011;24025;48.138;11.428;2023-04-24T12:53:03;1.38;;;0.40;;
38224;SDS011;24025;48.138;11.428;2023-04-24T12:55:34;0.45;;;0.30;;
38224;SDS011;24025;48.138;11.428;2023-04-24T12:58:06;2.25;;;0.40;;
38224;SDS011;24025;48.138;11.428;2023-04-24T13:00:38;1.98;;;0.43;;
38224;SDS011;24025;48.138;11.428;2023-04-24T13:03:10;0.98;;;0.40;;
38224;SDS011;24025;48.138;11.428;2023-04-24T13:05:42;1.58;;;0.50;;
38224;SDS011;24025;48.138;11.428;2023-04-24T13:08:15;0.77;;;0.47;;
38224;SDS011;24025;48.138;11.428;2023-04-24T13:10:46;0.45;;;0.40;;
38224;SDS011;24025;48.138;11.428;2023-04-24T13:13:18;3.03;;;0.50;;
38224;SDS011;24025;48.138;11.428;2023-04-24T13:15:49;2.28;;;0.70;;
38224;SDS011;24025;48.138;11.428;2023-04-24T13:18:21;5.25;;;0.50;;
38224;SDS011;24025;48.138;11.428;2023-04-24T13:20:53;4.22;;;0.70;;
38224;SDS011;24025;48.138;11.428;2023-04-24T13:23:24;1.75;;;0.80;;
38224;SDS011;24025;48.138;11.428;2023-04-24T13:25:56;1.08;;;0.50;;
38224;SDS011;24025;48.138;11.428;2023-04-24T13:28:28;0.60;;;0.32;;
38224;SDS011;24025;48.138;11.428;2023-04-24T13:31:01;0.90;;;0.55;;
38224;SDS011;24025;48.138;11.428;2023-04-24T13:33:32;2.03;;;0.57;;
38224;SDS011;24025;48.138;11.428;2023-04-24T13:36:04;1.17;;;0.70;;
38224;SDS011;24025;48.138;11.428;2023-04-24T13:38:39;0.90;;;0.52;;
38224;SDS011;24025;48.138;11.428;2023-04-24T13:41:10;2.90;;;0.65;;
38224;SDS011;24025;48.138;11.428;2023-04-24T13:43:42;1.17;;;0.43;;
38224;SDS011;24025;48.138;11.428;2023-04-24T13:46:14;4.25;;;0.60;;
38224;SDS011;24025;48.138;11.428;2023-04-24T13:48:46;3.03;;;0.43;;
38224;SDS011;24025;48.138;11.428;2023-04-24T13:51:18;1.35;;;0.55;;
38224;SDS011;24025;48.138;11.428;2023-04-24T13:53:50;1.88;;;0.30;;
38224;SDS011;24025;48.138;11.428;2023-04-24T13:56:22;1.58;;;0.68;;
38224;SDS011;24025;48.138;11.428;2023-04-24T13:58:53;1.27;;;0.77;;
38224;SDS011;24025;48.138;11.428;2023-04-24T14:01:25;1.20;;;0.73;;
38224;SDS011;24025;48.138;11.428;2023-04-24T14:03:57;1.42;;;0.60;;
38224;SDS011;24025;48.138;11.428;2023-04-24T14:06:29;2.45;;;0.57;;
38224;SDS011;24025;48.138;11.428;2023-04-24T14:09:02;3.88;;;0.85;;
38224;SDS011;24025;48.138;11.428;2023-04-24T14:11:34;2.10;;;0.47;;
38224;SDS011;24025;48.138;11.428;2023-04-24T14:14:06;0.85;;;0.40;;
38224;SDS011;24025;48.138;11.428;2023-04-24T14:16:38;2.97;;;0.50;;
38224;SDS011;24025;48.138;11.428;2023-04-24T14:19:11;1.38;;;0.88;;
38224;SDS011;24025;48.138;11.428;2023-04-24T14:21:42;5.68;;;0.60;;
38224;SDS011;24025;48.138;11.428;2023-04-24T14:24:14;0.70;;;0.50;;
38224;SDS011;24025;48.138;11.428;2023-04-24T14:26:46;2.85;;;0.73;;
38224;SDS011;24025;48.138;11.428;2023-04-24T14:29:17;3.25;;;0.70;;
38224;SDS011;24025;48.138;11.428;2023-04-24T14:31:50;1.88;;;0.60;;
38224;SDS011;24025;48.138;11.428;2023-04-24T14:34:22;2.25;;;0.50;;
38224;SDS011;24025;48.138;11.428;2023-04-24T14:36:53;1.10;;;0.45;;
38224;SDS011;24025;48.138;11.428;2023-04-24T14:39:25;1.50;;;0.80;;
38224;SDS011;24025;48.138;11.428;2023-04-24T14:41:57;4.00;;;0.85;;
38224;SDS011;24025;48.138;11.428;2023-04-24T14:44:28;0.82;;;0.60;;
38224;SDS011;24025;48.138;11.428;2023-04-24T14:47:00;1.63;;;0.60;;
38224;SDS011;24025;48.138;11.428;2023-04-24T14:49:32;1.80;;;0.70;;
38224;SDS011;24025;48.138;11.428;2023-04-24T14:52:03;4.03;;;0.75;;
38224;SDS011;24025;48.138;11.428;2023-04-24T14:54:35;1.73;;;0.50;;
38224;SDS011;24025;48.138;11.428;2023-04-24T14:57:07;1.23;;;0.75;;
38224;SDS011;24025;48.138;11.428;2023-04-24T14:59:39;0.57;;;0.40;;
38224;SDS011;24025;48.138;11.428;2023-04-24T15:02:10;1.35;;;0.60;;
38224;SDS011;24025;48.138;11.428;2023-04-24T15:04:47;1.40;;;0.52;;
38224;SDS011;24025;48.138;11.428;2023-04-24T15:07:19;1.35;;;0.50;;
38224;SDS011;24025;48.138;11.428;2023-04-24T15:09:51;5.78;;;0.70;;
38224;SDS011;24025;48.138;11.428;2023-04-24T15:12:22;2.08;;;0.60;;
38224;SDS011;24025;48.138;11.428;2023-04-24T15:14:54;1.27;;;0.70;;
38224;SDS011;24025;48.138;11.428;2023-04-24T15:17:26;1.17;;;0.50;;
38224;SDS011;24025;48.138;11.428;2023-04-24T15:19:58;3.90;;;0.45;;
38224;SDS011;24025;48.138;11.428;2023-04-24T15:22:29;2.38;;;0.65;;
38224;SDS011;24025;48.138;11.428;2023-04-24T15:25:01;1.20;;;0.63;;
38224;SDS011;24025;48.138;11.428;2023-04-24T15:27:43;5.97;;;0.50;;
38224;SDS011;24025;48.138;11.428;2023-04-24T15:32:47;2.55;;;0.60;;
38224;SDS011;24025;48.138;11.428;2023-04-24T15:35:18;1.67;;;0.40;;
38224;SDS011;24025;48.138;11.428;2023-04-24T15:37:50;1.77;;;0.50;;
38224;SDS011;24025;48.138;11.428;2023-04-24T15:40:22;1.02;;;0.45;;
38224;SDS011;24025;48.138;11.428;2023-04-24T15:42:53;0.98;;;0.40;;
38224;SDS011;24025;48.138;11.428;2023-04-24T15:45:25;0.65;;;0.40;;
38224;SDS011;24025;48.138;11.428;2023-04-24T15:47:56;0.93;;;0.50;;
38224;SDS011;24025;48.138;11.428;2023-04-24T15:50:28;1.48;;;0.45;;